Time;durP1;ratioP1;P1;durP2;ratioP2;P2;SDS_P1;SDS_P2;PMS_P1;PMS_P2;Temp;Humidity;BMP_temperature;BMP_pressure;BME280_temperature;BME280_humidity;BME280_pressure;Samples;Min_cycle;Max_cycle;Signal;HPM_P1;HPM_P2
2023/08/10 00:00:50;;;;;;;;;;;19.50;66.00;;;;;;5033997;28;20384;-52
2023/08/10 00:03:16;;;;;;;;;;;19.50;65.90;;;;;;5017750;28;20262;-53
2023/08/10 00:05:41;;;;;;;;;;;19.40;65.80;;;;;;5033817;28;20285;-53
2023/08/10 00:08:07;;;;;;;;;;;19.50;65.90;;;;;;5033289;28;20305;-53
2023/08/10 00:10:32;;;;;;;;;;;19.40;65.90;;;;;;5033700;28;19915;-52
2023/08/10 00:12:58;;;;;;;;;;;19.50;65.90;;;;;;5029810;28;19944;-52
2023/08/10 00:15:23;;;;;;;;;;;19.50;65.90;;;;;;5031636;28;19916;-52
2023/08/10 00:17:49;;;;;;;;;;;19.40;65.80;;;;;;5033403;28;19921;-52
2023/08/10 00:20:14;;;;;;;;;;;19.50;66.00;;;;;;5031988;28;19914;-53
2023/08/10 00:22:39;;;;;;;;;;;19.50;66.00;;;;;;5032894;28;20395;-53
2023/08/10 00:25:05;;;;;;;;;;;19.50;66.00;;;;;;5033286;28;20296;-52
2023/08/10 00:27:31;;;;;;;;;;;19.40;65.90;;;;;;5030918;28;19917;-52
2023/08/10 00:29:56;;;;;;;;;;;19.40;66.00;;;;;;5032517;28;19915;-52
2023/08/10 00:32:22;;;;;;;;;;;19.40;66.00;;;;;;5030885;28;19963;-53
2023/08/10 00:34:47;;;;;;;;;;;19.40;66.10;;;;;;5031678;28;20449;-52
2023/08/10 00:37:13;;;;;;;;;;;19.40;66.10;;;;;;5032581;28;20388;-52
2023/08/10 00:39:39;;;;;;;;;;;19.40;66.20;;;;;;5029596;28;19932;-52
2023/08/10 00:42:04;;;;;;;;;;;19.40;66.30;;;;;;5029126;28;19913;-52
2023/08/10 00:44:30;;;;;;;;;;;19.40;66.40;;;;;;5032474;28;19958;-52
2023/08/10 00:46:55;;;;;;;;;;;19.40;66.20;;;;;;5033245;28;19913;-52
2023/08/10 00:49:21;;;;;;;;;;;19.40;66.10;;;;;;5024556;28;20369;-52
2023/08/10 00:51:46;;;;;;;;;;;19.40;66.00;;;;;;5031762;28;20278;-52
2023/08/10 00:54:11;;;;;;;;;;;19.40;66.00;;;;;;5031281;28;20070;-52
2023/08/10 00:56:37;;;;;;;;;;;19.40;66.10;;;;;;5029156;28;19935;-52
2023/08/10 00:59:03;;;;;;;;;;;19.40;66.10;;;;;;5031989;28;19916;-53
2023/08/10 01:01:29;;;;;;;;;;;19.40;66.10;;;;;;5032782;28;19924;-52
2023/08/10 01:03:54;;;;;;;;;;;19.30;66.10;;;;;;5031566;28;20373;-53
2023/08/10 01:06:25;;;;;;;;;;;19.30;66.10;;;;;;5032846;28;19909;-52
2023/08/10 01:08:51;;;;;;;;;;;19.30;66.10;;;;;;5032144;28;20353;-52
2023/08/10 01:11:28;;;;;;;;;;;19.30;66.10;;;;;;5028956;28;19959;-53
2023/08/10 01:14:07;;;;;;;;;;;19.30;66.10;;;;;;5031894;28;19913;-52
2023/08/10 01:16:33;;;;;;;;;;;19.30;66.90;;;;;;5032558;28;19948;-53
2023/08/10 01:18:59;;;;;;;;;;;19.30;66.10;;;;;;5032330;28;19986;-53
2023/08/10 01:21:27;;;;;;;;;;;19.30;66.10;;;;;;5029831;28;19913;-52
2023/08/10 01:23:53;;;;;;;;;;;19.30;66.10;;;;;;5030428;28;19921;-53
2023/08/10 01:26:18;;;;;;;;;;;19.30;66.10;;;;;;5031087;28;19921;-52
2023/08/10 01:28:44;;;;;;;;;;;19.30;66.20;;;;;;5031704;28;20365;-52
2023/08/10 01:31:10;;;;;;;;;;;19.30;66.10;;;;;;5032176;28;20261;-52
2023/08/10 01:33:35;;;;;;;;;;;19.30;66.20;;;;;;5027128;28;19913;-53
2023/08/10 01:36:02;;;;;;;;;;;19.30;66.20;;;;;;5031665;28;19952;-52
2023/08/10 01:38:28;;;;;;;;;;;19.30;66.20;;;;;;5028864;28;20020;-52
2023/08/10 01:40:53;;;;;;;;;;;19.30;67.00;;;;;;5031787;28;19995;-53
2023/08/10 01:43:18;;;;;;;;;;;19.30;66.30;;;;;;5030858;28;19921;-52
2023/08/10 01:45:45;;;;;;;;;;;19.30;66.20;;;;;;5032180;28;19913;-52
2023/08/10 01:48:40;;;;;;;;;;;19.30;66.20;;;;;;5030999;28;20384;-53
2023/08/10 01:51:06;;;;;;;;;;;19.20;66.10;;;;;;5014383;28;19920;-52
2023/08/10 01:53:32;;;;;;;;;;;19.20;66.20;;;;;;5024219;28;20380;-52
2023/08/10 01:55:57;;;;;;;;;;;19.20;66.10;;;;;;5030968;28;19916;-52
2023/08/10 01:58:23;;;;;;;;;;;19.20;66.10;;;;;;5029463;28;19917;-52
2023/08/10 02:00:49;;;;;;;;;;;19.20;66.00;;;;;;5032012;28;19921;-53
2023/08/10 02:03:14;;;;;;;;;;;19.20;66.10;;;;;;5030816;28;19918;-52
2023/08/10 02:05:39;;;;;;;;;;;19.20;66.10;;;;;;5032083;28;20369;-52
2023/08/10 02:08:07;;;;;;;;;;;19.20;66.00;;;;;;5030105;28;20520;-53
2023/08/10 02:10:32;;;;;;;;;;;19.20;65.90;;;;;;5030829;28;20794;-52
2023/08/10 02:12:57;;;;;;;;;;;19.20;66.00;;;;;;5031855;28;19916;-52
2023/08/10 02:15:23;;;;;;;;;;;19.20;65.90;;;;;;5030760;28;19914;-52
2023/08/10 02:17:48;;;;;;;;;;;19.20;66.00;;;;;;5032270;28;19917;-52
2023/08/10 02:20:14;;;;;;;;;;;19.20;65.90;;;;;;5031527;28;20016;-53
2023/08/10 02:22:42;;;;;;;;;;;19.20;66.00;;;;;;5029397;28;19998;-52
2023/08/10 02:25:07;;;;;;;;;;;19.20;65.80;;;;;;5030909;28;20412;-52
2023/08/10 02:27:33;;;;;;;;;;;19.20;66.00;;;;;;5031882;28;19941;-53
2023/08/10 02:29:58;;;;;;;;;;;19.20;66.10;;;;;;5030477;28;19924;-54
2023/08/10 02:32:24;;;;;;;;;;;19.10;65.90;;;;;;5031932;28;19917;-52
2023/08/10 02:34:50;;;;;;;;;;;19.20;65.90;;;;;;5031198;28;19913;-53
2023/08/10 02:37:15;;;;;;;;;;;19.10;65.80;;;;;;5030014;28;20020;-52
2023/08/10 02:39:41;;;;;;;;;;;19.20;65.80;;;;;;5031023;28;19924;-52
2023/08/10 02:42:06;;;;;;;;;;;19.20;65.70;;;;;;5031741;28;19935;-52
2023/08/10 02:44:32;;;;;;;;;;;19.20;65.80;;;;;;5030684;28;19923;-52
2023/08/10 02:46:57;;;;;;;;;;;19.10;65.80;;;;;;5031043;28;20000;-52
2023/08/10 02:49:23;;;;;;;;;;;19.10;65.80;;;;;;5032678;28;19921;-52
2023/08/10 02:51:48;;;;;;;;;;;19.10;65.60;;;;;;5029863;28;20037;-53
2023/08/10 02:54:13;;;;;;;;;;;19.20;65.80;;;;;;5030551;28;20400;-52
2023/08/10 02:56:39;;;;;;;;;;;19.10;65.70;;;;;;5035019;28;19956;-53
2023/08/10 02:59:04;;;;;;;;;;;19.10;65.70;;;;;;5034383;28;19909;-52
2023/08/10 03:01:30;;;;;;;;;;;19.10;65.60;;;;;;5033404;28;19921;-52
2023/08/10 03:03:55;;;;;;;;;;;19.10;65.50;;;;;;5033729;28;19916;-52
2023/08/10 03:06:21;;;;;;;;;;;19.10;65.60;;;;;;5031855;28;20004;-52
2023/08/10 03:08:46;;;;;;;;;;;19.10;65.50;;;;;;5034962;28;19909;-52
2023/08/10 03:11:12;;;;;;;;;;;19.10;66.30;;;;;;5034280;28;19914;-52
2023/08/10 03:13:37;;;;;;;;;;;19.10;65.50;;;;;;5034166;28;19971;-52
2023/08/10 03:16:03;;;;;;;;;;;19.10;65.50;;;;;;5031947;28;19913;-52
2023/08/10 03:18:29;;;;;;;;;;;19.10;65.50;;;;;;5033613;28;20023;-52
2023/08/10 03:20:54;;;;;;;;;;;19.10;65.50;;;;;;5032893;28;20369;-52
2023/08/10 03:23:20;;;;;;;;;;;19.10;65.50;;;;;;5034518;28;19910;-52
2023/08/10 03:25:45;;;;;;;;;;;19.10;65.50;;;;;;5033727;28;19917;-52
2023/08/10 03:28:10;;;;;;;;;;;19.10;65.50;;;;;;5034154;28;19909;-53
2023/08/10 03:30:36;;;;;;;;;;;19.10;65.50;;;;;;5033089;28;19952;-52
2023/08/10 03:33:02;;;;;;;;;;;19.10;65.50;;;;;;5034312;28;19963;-52
2023/08/10 03:35:28;;;;;;;;;;;19.10;65.50;;;;;;5031834;28;19921;-52
2023/08/10 03:37:53;;;;;;;;;;;19.10;65.50;;;;;;5031816;28;19967;-52
2023/08/10 03:40:18;;;;;;;;;;;19.10;65.50;;;;;;5033649;28;19983;-52
2023/08/10 03:42:44;;;;;;;;;;;19.10;65.50;;;;;;5034318;28;19920;-52
2023/08/10 03:45:09;;;;;;;;;;;19.10;65.50;;;;;;5013140;28;19913;-52
2023/08/10 03:47:35;;;;;;;;;;;19.00;65.40;;;;;;5030949;28;19913;-52
2023/08/10 03:50:00;;;;;;;;;;;19.00;65.40;;;;;;5033101;28;19921;-52
2023/08/10 03:52:26;;;;;;;;;;;19.00;65.40;;;;;;5033808;28;19913;-52
2023/08/10 03:54:51;;;;;;;;;;;19.00;65.40;;;;;;5033752;28;19916;-52
2023/08/10 03:57:17;;;;;;;;;;;19.00;65.40;;;;;;5030965;28;19928;-52
2023/08/10 03:59:42;;;;;;;;;;;19.00;65.40;;;;;;5031509;28;19920;-53
2023/08/10 04:02:08;;;;;;;;;;;19.00;65.20;;;;;;5032165;28;19913;-52
2023/08/10 04:04:33;;;;;;;;;;;19.00;65.30;;;;;;5033019;28;19995;-52
2023/08/10 04:06:59;;;;;;;;;;;19.00;65.20;;;;;;5015443;28;20036;-52
2023/08/10 04:09:24;;;;;;;;;;;19.00;65.20;;;;;;5033139;28;19913;-53
2023/08/10 04:11:50;;;;;;;;;;;19.00;65.10;;;;;;5033238;28;19920;-52
2023/08/10 04:14:15;;;;;;;;;;;19.00;65.10;;;;;;5032759;28;19909;-52
2023/08/10 04:16:41;;;;;;;;;;;19.00;65.00;;;;;;5032588;28;19916;-53
2023/08/10 04:19:06;;;;;;;;;;;19.00;65.00;;;;;;5032907;28;19941;-52
2023/08/10 04:21:32;;;;;;;;;;;19.00;65.20;;;;;;5032862;28;19920;-52
2023/08/10 04:23:57;;;;;;;;;;;19.00;65.10;;;;;;5033296;28;19974;-53
2023/08/10 04:26:23;;;;;;;;;;;19.00;65.10;;;;;;5031565;28;20292;-52
2023/08/10 04:28:48;;;;;;;;;;;19.00;65.30;;;;;;5029974;28;19980;-52
2023/08/10 04:31:14;;;;;;;;;;;19.00;65.20;;;;;;5031534;28;20445;-52
2023/08/10 04:33:40;;;;;;;;;;;18.90;65.20;;;;;;5031355;28;20381;-52
2023/08/10 04:36:07;;;;;;;;;;;18.90;65.30;;;;;;5033399;28;20285;-52
2023/08/10 04:38:32;;;;;;;;;;;19.00;65.20;;;;;;5032432;28;19917;-52
2023/08/10 04:40:58;;;;;;;;;;;19.00;65.20;;;;;;5032073;28;19936;-52
2023/08/10 04:43:23;;;;;;;;;;;19.00;65.20;;;;;;5029817;28;20364;-52
2023/08/10 04:45:49;;;;;;;;;;;19.00;65.00;;;;;;5030507;28;19944;-53
2023/08/10 04:48:15;;;;;;;;;;;19.00;65.10;;;;;;5031575;28;19952;-52
2023/08/10 04:50:40;;;;;;;;;;;19.00;65.10;;;;;;5031425;28;19975;-52
2023/08/10 04:53:05;;;;;;;;;;;19.00;65.20;;;;;;5030630;28;19940;-53
2023/08/10 04:55:31;;;;;;;;;;;18.90;65.20;;;;;;5030825;28;20340;-53
2023/08/10 04:57:56;;;;;;;;;;;18.90;65.20;;;;;;5032983;28;20308;-53
2023/08/10 05:00:23;;;;;;;;;;;18.90;65.00;;;;;;5030023;28;20292;-52
2023/08/10 05:02:48;;;;;;;;;;;18.90;65.00;;;;;;5029446;28;19913;-53
2023/08/10 05:05:14;;;;;;;;;;;18.90;65.00;;;;;;5032305;28;19939;-52
2023/08/10 05:07:40;;;;;;;;;;;18.90;64.90;;;;;;5032548;28;19996;-52
2023/08/10 05:10:06;;;;;;;;;;;18.90;65.10;;;;;;5031784;28;19909;-52
2023/08/10 05:12:32;;;;;;;;;;;18.90;65.00;;;;;;5031758;28;20407;-53
2023/08/10 05:14:57;;;;;;;;;;;18.90;65.00;;;;;;5029257;28;19914;-52
2023/08/10 05:17:23;;;;;;;;;;;18.90;65.00;;;;;;5031658;28;19915;-53
2023/08/10 05:19:48;;;;;;;;;;;18.90;65.00;;;;;;5032296;28;20010;-52
2023/08/10 05:22:14;;;;;;;;;;;18.90;65.00;;;;;;5031211;28;20006;-53
2023/08/10 05:24:39;;;;;;;;;;;18.90;65.00;;;;;;5031155;28;20361;-52
2023/08/10 05:27:05;;;;;;;;;;;18.90;65.00;;;;;;5031707;28;19913;-52
2023/08/10 05:29:30;;;;;;;;;;;18.90;65.00;;;;;;5029378;28;19917;-53
2023/08/10 05:31:56;;;;;;;;;;;18.90;65.00;;;;;;5030451;28;19920;-53
2023/08/10 05:34:21;;;;;;;;;;;18.90;65.10;;;;;;5031352;28;19920;-52
2023/08/10 05:36:47;;;;;;;;;;;18.90;65.00;;;;;;5030571;28;19920;-52
2023/08/10 05:39:12;;;;;;;;;;;18.90;65.00;;;;;;5028158;28;20366;-53
2023/08/10 05:41:38;;;;;;;;;;;18.80;65.00;;;;;;5028800;28;19917;-52
2023/08/10 05:44:03;;;;;;;;;;;18.90;65.00;;;;;;5027831;28;19913;-54
2023/08/10 05:46:29;;;;;;;;;;;18.90;65.00;;;;;;5031887;28;19921;-53
2023/08/10 05:48:54;;;;;;;;;;;18.90;64.90;;;;;;5032338;28;19927;-52
2023/08/10 05:51:20;;;;;;;;;;;18.90;65.00;;;;;;5031903;28;19920;-53
2023/08/10 05:53:45;;;;;;;;;;;18.90;65.00;;;;;;5031010;28;20369;-52
2023/08/10 05:56:10;;;;;;;;;;;18.90;64.90;;;;;;5031719;28;20369;-52
2023/08/10 05:58:36;;;;;;;;;;;18.90;65.00;;;;;;5026914;28;20300;-52
2023/08/10 06:01:03;;;;;;;;;;;18.90;65.00;;;;;;5029704;28;19987;-52
2023/08/10 06:03:28;;;;;;;;;;;18.90;64.80;;;;;;5030056;28;19967;-52
2023/08/10 06:05:54;;;;;;;;;;;18.90;64.90;;;;;;5029855;28;19968;-53
2023/08/10 06:08:19;;;;;;;;;;;18.90;64.90;;;;;;5030232;28;20289;-52
2023/08/10 06:10:49;;;;;;;;;;;18.90;65.00;;;;;;5024715;28;19913;-53
2023/08/10 06:13:14;;;;;;;;;;;18.90;65.20;;;;;;5027833;28;20362;-52
2023/08/10 06:15:40;;;;;;;;;;;18.90;65.10;;;;;;5026769;28;19921;-52
2023/08/10 06:18:05;;;;;;;;;;;19.00;65.10;;;;;;5031216;28;20012;-52
2023/08/10 06:20:32;;;;;;;;;;;19.00;65.20;;;;;;5027375;28;19930;-52
2023/08/10 06:22:58;;;;;;;;;;;18.90;65.20;;;;;;5031240;28;19910;-53
2023/08/10 06:25:24;;;;;;;;;;;19.00;65.20;;;;;;5040105;28;19916;-52
2023/08/10 06:27:50;;;;;;;;;;;19.00;65.20;;;;;;5029712;28;19921;-53
2023/08/10 06:30:16;;;;;;;;;;;19.00;65.20;;;;;;5031012;28;19919;-53
2023/08/10 06:32:41;;;;;;;;;;;19.00;65.10;;;;;;5035094;28;19916;-52
2023/08/10 06:35:08;;;;;;;;;;;19.00;65.00;;;;;;5034853;28;19913;-52
2023/08/10 06:37:34;;;;;;;;;;;19.00;65.00;;;;;;5039016;28;19983;-53
2023/08/10 06:39:59;;;;;;;;;;;19.00;65.10;;;;;;5030971;28;19925;-52
2023/08/10 06:42:25;;;;;;;;;;;19.00;65.00;;;;;;5031495;28;19979;-52
2023/08/10 06:44:50;;;;;;;;;;;19.00;65.00;;;;;;5032589;28;20335;-53
2023/08/10 06:47:16;;;;;;;;;;;19.00;65.30;;;;;;5034902;28;19909;-52
2023/08/10 06:49:41;;;;;;;;;;;19.00;65.30;;;;;;5036488;28;19957;-53
2023/08/10 06:52:07;;;;;;;;;;;19.00;65.30;;;;;;5019402;28;19935;-53
2023/08/10 06:54:32;;;;;;;;;;;19.00;65.20;;;;;;5034587;28;19916;-52
2023/08/10 06:56:58;;;;;;;;;;;19.00;65.20;;;;;;5030910;28;19917;-53
2023/08/10 06:59:23;;;;;;;;;;;19.00;65.20;;;;;;5037875;28;19916;-52
2023/08/10 07:01:49;;;;;;;;;;;19.10;65.30;;;;;;5030232;28;20359;-54
2023/08/10 07:04:14;;;;;;;;;;;19.10;65.30;;;;;;5014529;28;20326;-53
2023/08/10 07:06:39;;;;;;;;;;;19.10;65.10;;;;;;5033427;28;19936;-53
2023/08/10 07:09:05;;;;;;;;;;;19.10;65.10;;;;;;5030605;28;19970;-53
2023/08/10 07:11:31;;;;;;;;;;;19.00;65.00;;;;;;5031832;28;20012;-53
2023/08/10 07:13:56;;;;;;;;;;;19.10;64.90;;;;;;5031750;28;19909;-55
2023/08/10 07:16:22;;;;;;;;;;;19.10;65.00;;;;;;5034777;28;20608;-53
2023/08/10 07:18:47;;;;;;;;;;;19.10;65.00;;;;;;5029872;28;19913;-53
2023/08/10 07:21:13;;;;;;;;;;;19.10;64.90;;;;;;5029805;28;19924;-53
2023/08/10 07:23:38;;;;;;;;;;;19.10;65.00;;;;;;5026553;28;19917;-53
2023/08/10 07:26:04;;;;;;;;;;;19.10;65.00;;;;;;5029614;28;19971;-53
2023/08/10 07:28:30;;;;;;;;;;;19.10;64.80;;;;;;5031697;28;19932;-53
2023/08/10 07:30:55;;;;;;;;;;;19.10;64.70;;;;;;5032194;28;19913;-53
2023/08/10 07:33:21;;;;;;;;;;;19.10;64.80;;;;;;5026248;28;19909;-53
2023/08/10 07:35:46;;;;;;;;;;;19.10;64.90;;;;;;5034251;28;19909;-55
2023/08/10 07:38:12;;;;;;;;;;;19.10;65.20;;;;;;5032978;28;19956;-55
2023/08/10 07:40:37;;;;;;;;;;;19.10;64.90;;;;;;5030337;28;19924;-55
2023/08/10 07:43:03;;;;;;;;;;;19.10;65.00;;;;;;5030832;28;19917;-53
2023/08/10 07:45:28;;;;;;;;;;;19.10;65.10;;;;;;5032904;28;19978;-54
2023/08/10 07:47:54;;;;;;;;;;;19.10;64.90;;;;;;5033492;28;19920;-53
2023/08/10 07:50:19;;;;;;;;;;;19.10;64.70;;;;;;5034945;28;19925;-53
2023/08/10 07:52:45;;;;;;;;;;;19.10;64.70;;;;;;5032220;28;19917;-54
2023/08/10 07:55:12;;;;;;;;;;;19.10;64.60;;;;;;5033320;28;19913;-53
2023/08/10 07:57:38;;;;;;;;;;;19.10;64.60;;;;;;5032856;28;20374;-53
2023/08/10 08:00:05;;;;;;;;;;;19.10;64.40;;;;;;5029868;28;19928;-53
2023/08/10 08:02:31;;;;;;;;;;;19.10;64.50;;;;;;5037547;28;20427;-53
2023/08/10 08:04:57;;;;;;;;;;;19.10;64.30;;;;;;5033221;28;19910;-54
2023/08/10 08:07:23;;;;;;;;;;;19.20;64.40;;;;;;5033332;28;20270;-53
2023/08/10 08:09:48;;;;;;;;;;;19.20;64.40;;;;;;5026503;28;19932;-54
2023/08/10 08:12:14;;;;;;;;;;;19.20;64.20;;;;;;5025611;28;19922;-53
2023/08/10 08:14:39;;;;;;;;;;;19.20;64.00;;;;;;5030020;28;20453;-53
2023/08/10 08:17:05;;;;;;;;;;;19.20;64.30;;;;;;5030741;28;19917;-54
2023/08/10 08:19:32;;;;;;;;;;;19.20;63.80;;;;;;5031354;28;20344;-53
2023/08/10 08:21:57;;;;;;;;;;;19.30;64.30;;;;;;5033042;28;19909;-54
2023/08/10 08:24:27;;;;;;;;;;;19.30;64.20;;;;;;5033474;28;19917;-55
2023/08/10 08:26:53;;;;;;;;;;;19.30;64.20;;;;;;5010333;28;20297;-52
2023/08/10 08:29:18;;;;;;;;;;;19.30;64.10;;;;;;5030944;28;19913;-53
2023/08/10 08:31:44;;;;;;;;;;;19.30;64.00;;;;;;5013853;28;19917;-52
2023/08/10 08:34:09;;;;;;;;;;;19.20;63.50;;;;;;5033823;28;19921;-53
2023/08/10 08:36:35;;;;;;;;;;;19.30;64.00;;;;;;5030928;28;20036;-53
2023/08/10 08:39:00;;;;;;;;;;;19.30;63.70;;;;;;5031392;28;19996;-53
2023/08/10 08:41:27;;;;;;;;;;;19.30;63.80;;;;;;5031198;28;20297;-52
2023/08/10 08:43:52;;;;;;;;;;;19.30;63.70;;;;;;5030728;28;20003;-54
2023/08/10 08:46:20;;;;;;;;;;;19.30;63.50;;;;;;5032701;28;20345;-53
2023/08/10 08:48:45;;;;;;;;;;;19.30;63.50;;;;;;5022378;28;20297;-53
2023/08/10 08:51:10;;;;;;;;;;;19.30;63.70;;;;;;5032202;28;19932;-52
2023/08/10 08:53:36;;;;;;;;;;;19.30;63.40;;;;;;5015844;28;20425;-53
2023/08/10 08:56:01;;;;;;;;;;;19.30;63.40;;;;;;5031228;28;20424;-52
2023/08/10 08:58:27;;;;;;;;;;;19.30;63.40;;;;;;5028116;28;20578;-53
2023/08/10 09:00:53;;;;;;;;;;;19.30;63.40;;;;;;5032043;28;20004;-52
2023/08/10 09:03:19;;;;;;;;;;;19.30;63.00;;;;;;5030896;28;19913;-52
2023/08/10 09:05:45;;;;;;;;;;;19.30;63.00;;;;;;5031750;28;20629;-53
2023/08/10 09:08:12;;;;;;;;;;;19.40;63.40;;;;;;5003713;28;19963;-53
2023/08/10 09:10:38;;;;;;;;;;;19.40;63.20;;;;;;5032322;28;19913;-52
2023/08/10 09:13:14;;;;;;;;;;;19.40;62.90;;;;;;5031340;28;19916;-52
2023/08/10 09:15:40;;;;;;;;;;;19.40;62.70;;;;;;5020584;28;19925;-52
2023/08/10 09:18:06;;;;;;;;;;;19.40;62.60;;;;;;5042020;28;20377;-52
2023/08/10 09:20:31;;;;;;;;;;;19.40;62.60;;;;;;5025694;28;19921;-54
2023/08/10 09:22:57;;;;;;;;;;;19.40;62.50;;;;;;5027385;28;19999;-52
2023/08/10 09:25:22;;;;;;;;;;;19.40;62.10;;;;;;5031231;28;19916;-52
2023/08/10 09:27:48;;;;;;;;;;;19.40;62.30;;;;;;5029261;28;20373;-53
2023/08/10 09:30:14;;;;;;;;;;;19.50;62.10;;;;;;5026645;28;19917;-53
2023/08/10 09:32:39;;;;;;;;;;;19.50;62.00;;;;;;5029633;28;19921;-53
2023/08/10 09:35:05;;;;;;;;;;;19.50;61.90;;;;;;5028765;28;19923;-52
2023/08/10 09:37:31;;;;;;;;;;;19.60;61.80;;;;;;5031855;28;19924;-52
2023/08/10 09:40:06;;;;;;;;;;;19.60;61.80;;;;;;5031459;28;19960;-52
2023/08/10 09:42:32;;;;;;;;;;;19.60;61.80;;;;;;5028839;28;19918;-53
2023/08/10 09:44:58;;;;;;;;;;;19.60;61.70;;;;;;5010373;28;19968;-53
2023/08/10 09:47:24;;;;;;;;;;;19.60;61.50;;;;;;5005650;28;19910;-53
2023/08/10 09:49:55;;;;;;;;;;;19.70;61.40;;;;;;5023048;28;20297;-53
2023/08/10 09:52:21;;;;;;;;;;;19.70;61.40;;;;;;5027488;28;19970;-54
2023/08/10 09:54:48;;;;;;;;;;;19.70;61.50;;;;;;5027390;28;19925;-52
2023/08/10 09:57:13;;;;;;;;;;;19.70;61.70;;;;;;5009399;28;20290;-52
2023/08/10 09:59:39;;;;;;;;;;;19.70;61.50;;;;;;5021642;28;19956;-53
2023/08/10 10:02:05;;;;;;;;;;;19.70;61.40;;;;;;5024586;28;19917;-52
2023/08/10 10:04:33;;;;;;;;;;;19.70;61.40;;;;;;5030813;28;19965;-53
2023/08/10 10:06:58;;;;;;;;;;;19.70;61.50;;;;;;5036365;28;19916;-53
2023/08/10 10:09:24;;;;;;;;;;;19.70;61.60;;;;;;5034826;28;19917;-53
2023/08/10 10:11:49;;;;;;;;;;;19.70;61.60;;;;;;5036706;28;19925;-52
2023/08/10 10:14:15;;;;;;;;;;;19.70;61.70;;;;;;5034443;28;19913;-53
2023/08/10 10:16:40;;;;;;;;;;;19.70;61.80;;;;;;5038102;28;19909;-53
2023/08/10 10:19:06;;;;;;;;;;;19.70;61.70;;;;;;5036465;28;19912;-53
2023/08/10 10:21:31;;;;;;;;;;;19.70;61.70;;;;;;5039704;28;19921;-53
2023/08/10 10:24:03;;;;;;;;;;;19.60;61.70;;;;;;5040735;28;19920;-52
2023/08/10 10:26:29;;;;;;;;;;;19.70;61.80;;;;;;5034932;28;19916;-53
2023/08/10 10:29:21;;;;;;;;;;;19.70;62.00;;;;;;5036207;28;19917;-53
2023/08/10 10:31:46;;;;;;;;;;;19.80;61.20;;;;;;5027101;28;19921;-52
2023/08/10 10:34:13;;;;;;;;;;;19.80;61.20;;;;;;5032706;28;19967;-53
2023/08/10 10:36:38;;;;;;;;;;;19.90;61.40;;;;;;5030986;28;19917;-53
2023/08/10 10:39:07;;;;;;;;;;;19.90;61.40;;;;;;5033328;28;19928;-53
2023/08/10 10:41:35;;;;;;;;;;;19.90;61.20;;;;;;5036207;28;19925;-53
2023/08/10 10:44:04;;;;;;;;;;;20.00;61.20;;;;;;5036675;28;19996;-53
2023/08/10 10:46:32;;;;;;;;;;;20.00;61.00;;;;;;5034685;28;19921;-53
2023/08/10 10:48:58;;;;;;;;;;;20.00;60.60;;;;;;5033941;28;19921;-53
2023/08/10 10:51:24;;;;;;;;;;;20.00;60.50;;;;;;5035314;28;20448;-53
2023/08/10 10:53:53;;;;;;;;;;;20.00;60.60;;;;;;5033873;28;19924;-52
2023/08/10 10:56:19;;;;;;;;;;;19.90;60.70;;;;;;5036324;28;20008;-53
2023/08/10 10:58:44;;;;;;;;;;;19.90;61.10;;;;;;5031330;28;19913;-53
2023/08/10 11:01:10;;;;;;;;;;;20.00;61.10;;;;;;5030984;28;19940;-53
2023/08/10 11:03:35;;;;;;;;;;;20.00;61.00;;;;;;5027750;28;19917;-53
2023/08/10 11:06:02;;;;;;;;;;;20.10;60.90;;;;;;5020910;28;20043;-53
2023/08/10 11:08:28;;;;;;;;;;;20.10;60.80;;;;;;5033094;28;19909;-53
2023/08/10 11:10:55;;;;;;;;;;;20.20;61.10;;;;;;5033230;28;19927;-53
2023/08/10 11:13:24;;;;;;;;;;;20.20;60.90;;;;;;5032006;28;19913;-53
2023/08/10 11:15:49;;;;;;;;;;;20.20;60.70;;;;;;5037643;28;19921;-52
2023/08/10 11:18:15;;;;;;;;;;;20.20;60.60;;;;;;5032222;28;19916;-51
2023/08/10 11:20:47;;;;;;;;;;;20.30;60.50;;;;;;5038451;28;19917;-52
2023/08/10 11:23:13;;;;;;;;;;;20.30;60.50;;;;;;5030230;28;20040;-51
2023/08/10 11:25:41;;;;;;;;;;;20.30;60.40;;;;;;5032230;28;19996;-52
2023/08/10 11:28:07;;;;;;;;;;;20.40;60.40;;;;;;5025007;28;19910;-54
2023/08/10 11:30:32;;;;;;;;;;;20.30;60.10;;;;;;5026560;28;19917;-51
2023/08/10 11:32:58;;;;;;;;;;;20.30;59.90;;;;;;5031853;28;19909;-52
2023/08/10 11:35:24;;;;;;;;;;;20.40;59.80;;;;;;5033887;28;19920;-54
2023/08/10 11:37:49;;;;;;;;;;;20.40;59.60;;;;;;5033889;28;19917;-52
2023/08/10 11:40:21;;;;;;;;;;;20.30;59.60;;;;;;5027559;28;19917;-52
2023/08/10 11:42:52;;;;;;;;;;;20.30;59.50;;;;;;5032007;28;20388;-52
2023/08/10 11:45:20;;;;;;;;;;;20.30;59.60;;;;;;5036724;28;19909;-52
2023/08/10 11:47:58;;;;;;;;;;;20.40;59.70;;;;;;5032688;28;19913;-52
2023/08/10 11:50:25;;;;;;;;;;;20.40;59.50;;;;;;5031005;28;19955;-52
2023/08/10 11:52:50;;;;;;;;;;;20.30;59.50;;;;;;5036661;28;19974;-52
2023/08/10 11:55:16;;;;;;;;;;;20.30;59.60;;;;;;5040402;28;20322;-52
2023/08/10 11:57:42;;;;;;;;;;;20.30;59.60;;;;;;5017878;28;20270;-52
2023/08/10 12:00:23;;;;;;;;;;;20.30;59.70;;;;;;5028240;28;19924;-52
2023/08/10 12:03:18;;;;;;;;;;;20.30;59.80;;;;;;5031554;28;19913;-52
2023/08/10 12:05:47;;;;;;;;;;;20.30;59.80;;;;;;5035922;28;20329;-53
2023/08/10 12:08:14;;;;;;;;;;;20.30;59.60;;;;;;5021333;28;20003;-52
2023/08/10 12:10:41;;;;;;;;;;;20.30;59.30;;;;;;5032330;28;19960;-52
2023/08/10 12:13:07;;;;;;;;;;;20.40;59.50;;;;;;5029732;28;20333;-52
2023/08/10 12:15:32;;;;;;;;;;;20.40;59.50;;;;;;5030695;28;19956;-52
2023/08/10 12:17:59;;;;;;;;;;;20.40;59.50;;;;;;5031294;28;19936;-52
2023/08/10 12:20:25;;;;;;;;;;;20.40;59.30;;;;;;5031740;28;19921;-53
2023/08/10 12:22:51;;;;;;;;;;;20.40;59.30;;;;;;5030469;28;19920;-52
2023/08/10 12:25:17;;;;;;;;;;;20.40;59.40;;;;;;5033044;28;19967;-52
2023/08/10 12:27:42;;;;;;;;;;;20.40;59.30;;;;;;5029486;28;19913;-53
2023/08/10 12:30:09;;;;;;;;;;;20.50;59.40;;;;;;5014368;28;19913;-53
2023/08/10 12:32:34;;;;;;;;;;;20.60;59.40;;;;;;5030507;28;19917;-53
2023/08/10 12:35:00;;;;;;;;;;;20.60;59.30;;;;;;5032629;28;20320;-53
2023/08/10 12:37:26;;;;;;;;;;;20.60;59.00;;;;;;5032771;28;19909;-53
2023/08/10 12:39:53;;;;;;;;;;;20.60;58.60;;;;;;5036282;28;19918;-53
2023/08/10 12:42:18;;;;;;;;;;;20.50;58.40;;;;;;5029866;28;19913;-53
2023/08/10 12:44:43;;;;;;;;;;;20.60;58.50;;;;;;5022908;28;19913;-53
2023/08/10 12:47:09;;;;;;;;;;;20.60;58.20;;;;;;5029128;28;19928;-52
2023/08/10 12:49:34;;;;;;;;;;;20.60;58.40;;;;;;5026770;28;19921;-53
2023/08/10 12:52:00;;;;;;;;;;;20.50;58.50;;;;;;5028950;28;19921;-53
2023/08/10 12:54:25;;;;;;;;;;;20.50;58.70;;;;;;5026679;28;19913;-53
2023/08/10 12:56:51;;;;;;;;;;;20.50;58.80;;;;;;5028245;28;19962;-53
2023/08/10 12:59:16;;;;;;;;;;;20.60;58.70;;;;;;5028894;28;19913;-53
2023/08/10 13:01:41;;;;;;;;;;;20.60;58.70;;;;;;5031237;28;19925;-53
2023/08/10 13:04:07;;;;;;;;;;;20.60;58.70;;;;;;5031949;28;19909;-53
2023/08/10 13:06:32;;;;;;;;;;;20.60;58.70;;;;;;5036236;28;19956;-54
2023/08/10 13:08:58;;;;;;;;;;;20.60;58.60;;;;;;5041621;28;19916;-53
2023/08/10 13:11:23;;;;;;;;;;;20.60;58.50;;;;;;5028452;28;19920;-52
2023/08/10 13:13:49;;;;;;;;;;;20.60;58.20;;;;;;5030995;28;19913;-52
2023/08/10 13:16:14;;;;;;;;;;;20.60;58.00;;;;;;5032787;28;19921;-53
2023/08/10 13:18:40;;;;;;;;;;;20.60;58.30;;;;;;5038913;28;20003;-53
2023/08/10 13:21:06;;;;;;;;;;;20.70;58.20;;;;;;5031241;28;19917;-53
2023/08/10 13:23:31;;;;;;;;;;;20.70;58.20;;;;;;5031782;28;19909;-53
2023/08/10 13:25:57;;;;;;;;;;;20.70;58.30;;;;;;5028474;28;20289;-53
2023/08/10 13:28:22;;;;;;;;;;;20.70;58.60;;;;;;5025603;28;19994;-53
2023/08/10 13:30:47;;;;;;;;;;;20.60;58.60;;;;;;5030171;28;19919;-53
2023/08/10 13:33:13;;;;;;;;;;;20.70;58.70;;;;;;5031740;28;20000;-53
2023/08/10 13:35:39;;;;;;;;;;;20.70;58.60;;;;;;5038228;28;19917;-53
2023/08/10 13:38:04;;;;;;;;;;;20.70;58.50;;;;;;5029849;28;19917;-52
2023/08/10 13:40:30;;;;;;;;;;;20.70;58.60;;;;;;5031057;28;19921;-53
2023/08/10 13:42:55;;;;;;;;;;;20.70;58.60;;;;;;5030629;28;19976;-53
2023/08/10 13:45:20;;;;;;;;;;;20.70;58.60;;;;;;5028990;28;19920;-53
2023/08/10 13:47:46;;;;;;;;;;;20.70;58.50;;;;;;5028341;28;19913;-53
2023/08/10 13:50:13;;;;;;;;;;;20.70;58.80;;;;;;5014294;28;20433;-53
2023/08/10 13:52:39;;;;;;;;;;;20.70;58.90;;;;;;5030957;28;19932;-53
2023/08/10 13:55:05;;;;;;;;;;;20.70;58.90;;;;;;5028568;28;19917;-53
2023/08/10 13:57:31;;;;;;;;;;;20.70;58.70;;;;;;5028278;28;19920;-54
2023/08/10 13:59:56;;;;;;;;;;;20.70;58.50;;;;;;5030878;28;19913;-53
2023/08/10 14:02:23;;;;;;;;;;;20.70;58.60;;;;;;5039881;28;19923;-53
2023/08/10 14:04:49;;;;;;;;;;;20.70;58.70;;;;;;5029863;28;20353;-53
2023/08/10 14:07:14;;;;;;;;;;;20.60;58.60;;;;;;5012118;28;20016;-53
2023/08/10 14:09:40;;;;;;;;;;;20.60;58.70;;;;;;5023749;28;19917;-53